createdAt,value
2018-07-17T00:02:56.206Z,99.99
2018-07-17T00:12:56.267Z,99.99
2018-07-17T00:22:56.139Z,99.99
2018-07-17T00:33:11.578Z,99.99
2018-07-17T00:42:59.562Z,99.99
2018-07-17T00:52:56.226Z,99.99
2018-07-17T01:02:56.206Z,99.99
2018-07-17T01:12:56.192Z,99.99
2018-07-17T01:22:56.214Z,99.99
2018-07-17T01:32:56.225Z,99.99
2018-07-17T01:42:56.177Z,99.99
2018-07-17T01:52:56.209Z,99.99
2018-07-17T02:02:56.251Z,99.99
2018-07-17T02:12:56.284Z,99.99
2018-07-17T02:22:56.181Z,99.99
2018-07-17T02:32:56.152Z,99.99
2018-07-17T02:42:56.214Z,99.99
2018-07-17T02:52:56.188Z,99.99
2018-07-17T03:02:56.216Z,99.99
2018-07-17T03:12:56.194Z,99.99
2018-07-17T03:22:56.136Z,99.99
2018-07-17T03:32:56.162Z,99.99
2018-07-17T03:42:56.184Z,99.99
2018-07-17T03:52:56.105Z,99.99
2018-07-17T04:02:56.399Z,99.99
2018-07-17T04:12:56.137Z,99.99
2018-07-17T04:22:56.236Z,99.99
2018-07-17T04:32:56.219Z,99.99
2018-07-17T04:42:56.148Z,99.99
2018-07-17T04:52:56.201Z,99.99
2018-07-17T05:02:56.195Z,99.99
2018-07-17T05:12:56.314Z,99.99
2018-07-17T05:22:56.284Z,99.99
2018-07-17T05:32:56.160Z,99.99
2018-07-17T05:42:56.221Z,99.99
2018-07-17T05:52:56.180Z,99.99
2018-07-17T06:02:56.250Z,99.99
2018-07-17T06:12:56.199Z,92.18
2018-07-17T06:22:56.192Z,76.78
2018-07-17T06:32:56.288Z,59.43
2018-07-17T06:42:56.144Z,49.78
2018-07-17T06:52:56.141Z,44.83
2018-07-17T07:02:56.203Z,41.71
2018-07-17T07:12:56.179Z,36.49
2018-07-17T07:22:56.292Z,34.23
2018-07-17T07:32:56.160Z,31.15
2018-07-17T07:42:56.324Z,32
2018-07-17T07:52:56.167Z,30.12
2018-07-17T08:02:56.253Z,30.15
2018-07-17T08:12:56.404Z,27.16
2018-07-17T08:22:56.164Z,25.37
2018-07-17T08:32:56.185Z,29.25
2018-07-17T08:42:56.155Z,28.45
2018-07-17T08:52:56.347Z,27.3
2018-07-17T09:02:56.181Z,30.21
2018-07-17T09:12:56.209Z,32.06
2018-07-17T09:22:56.206Z,36.14
2018-07-17T09:32:56.210Z,40.11
2018-07-17T09:42:56.215Z,42.52
2018-07-17T09:52:56.240Z,43.01
2018-07-17T10:02:56.196Z,43.62
2018-07-17T10:12:56.204Z,43.81
2018-07-17T10:22:56.209Z,44.49
2018-07-17T10:32:56.231Z,42.81
2018-07-17T10:42:56.226Z,41.54
2018-07-17T10:52:56.253Z,46.23
2018-07-17T11:02:56.236Z,44.34
2018-07-17T11:12:56.213Z,43.95
2018-07-17T11:22:56.244Z,43.82
2018-07-17T11:32:56.210Z,43.14
2018-07-17T11:42:56.261Z,41.09
2018-07-17T11:52:56.226Z,41.8
2018-07-17T12:02:56.281Z,43.75
2018-07-17T12:12:56.397Z,42.48
2018-07-17T12:22:56.244Z,44.06
2018-07-17T12:32:56.265Z,47.14
2018-07-17T12:42:56.247Z,46.56
2018-07-17T12:52:56.254Z,45.17
2018-07-17T13:02:56.240Z,44.7
2018-07-17T13:12:56.286Z,44.92
2018-07-17T13:22:56.263Z,41.23
2018-07-17T13:32:56.358Z,40.76
2018-07-17T13:42:56.281Z,39.88
2018-07-17T13:52:56.326Z,40.95
2018-07-17T14:02:56.234Z,39.67
2018-07-17T14:12:56.259Z,39.06
2018-07-17T14:22:56.410Z,41.33
2018-07-17T14:32:56.276Z,42.48
2018-07-17T14:42:56.521Z,41.48
2018-07-17T14:52:56.414Z,42.58
2018-07-17T15:02:56.546Z,44.53
2018-07-17T15:12:56.718Z,45.26
2018-07-17T15:22:56.436Z,44.87
2018-07-17T15:32:56.378Z,46.14
2018-07-17T15:42:56.395Z,45.78
2018-07-17T15:52:56.435Z,45.83
2018-07-17T16:02:56.436Z,42.44
2018-07-17T16:12:56.433Z,42.85
2018-07-17T16:22:56.419Z,44.48
2018-07-17T16:32:56.496Z,46.02
2018-07-17T16:42:56.486Z,45.64
2018-07-17T16:52:56.440Z,47.95
2018-07-17T17:02:56.350Z,48.32
2018-07-17T17:12:56.378Z,50.43
2018-07-17T17:22:56.594Z,51.87
2018-07-17T17:32:56.444Z,52.62
2018-07-17T17:42:56.522Z,52.23
2018-07-17T17:52:56.414Z,53.67
2018-07-17T18:02:56.603Z,54.35
2018-07-17T18:12:56.411Z,54.05
2018-07-17T18:22:56.492Z,54.32
2018-07-17T18:32:56.491Z,55.36
2018-07-17T18:42:56.502Z,56.52
2018-07-17T18:52:56.479Z,60.68
2018-07-17T19:02:56.387Z,65.66
2018-07-17T19:12:56.569Z,69.6
2018-07-17T19:22:58.245Z,71.12
2018-07-17T19:32:56.413Z,71.92
2018-07-17T19:42:56.388Z,73.33
2018-07-17T19:52:56.477Z,75.62
2018-07-17T20:02:56.388Z,76.87
2018-07-17T20:12:56.713Z,79.41
2018-07-17T20:22:56.502Z,81.11
2018-07-17T20:32:56.393Z,83
2018-07-17T20:42:56.487Z,84.5
2018-07-17T20:52:56.549Z,86.77
2018-07-17T21:02:56.361Z,87.64
2018-07-17T21:12:56.557Z,89.09
2018-07-17T21:22:56.537Z,89.96
2018-07-17T21:32:56.556Z,91.36
2018-07-17T21:42:56.649Z,91.22
2018-07-17T21:52:57.301Z,92.13
2018-07-17T22:02:56.837Z,96.85
2018-07-17T22:12:56.422Z,98.14
2018-07-17T22:22:57.025Z,99.98
2018-07-17T22:32:56.521Z,99.99
2018-07-17T22:42:56.394Z,99.99
2018-07-17T22:52:56.467Z,99.68
2018-07-17T23:02:56.446Z,99.99
2018-07-17T23:12:57.419Z,99.99
2018-07-17T23:22:56.441Z,99.99
2018-07-17T23:32:56.381Z,99.99
2018-07-17T23:42:56.456Z,99.99
2018-07-17T23:52:56.397Z,99.99
